createdAt,value
2017-11-20T00:00:06.555Z,1013.52
2017-11-20T00:01:59.211Z,1013.54
2017-11-20T00:03:01.038Z,1013.53
2017-11-20T00:04:52.549Z,1013.46
2017-11-20T00:05:53.671Z,1013.51
2017-11-20T00:07:47.296Z,1013.47
2017-11-20T00:08:47.224Z,1013.51
2017-11-20T00:10:38.012Z,1013.52
2017-11-20T00:11:40.815Z,1013.50
2017-11-20T00:13:34.329Z,1013.50
2017-11-20T00:14:33.601Z,1013.52
2017-11-20T00:16:27.031Z,1013.49
2017-11-20T00:17:27.931Z,1013.46
2017-11-20T00:19:19.885Z,1013.46
2017-11-20T00:20:21.477Z,1013.45
2017-11-20T00:22:13.938Z,1013.46
2017-11-20T00:23:14.067Z,1013.43
2017-11-20T00:25:07.426Z,1013.40
2017-11-20T00:26:08.601Z,1013.41
2017-11-20T00:28:01.314Z,1013.42
2017-11-20T00:29:02.160Z,1013.41
2017-11-20T00:30:55.679Z,1013.40
2017-11-20T00:31:53.680Z,1013.38
2017-11-20T00:33:48.096Z,1013.33
2017-11-20T00:34:49.231Z,1013.35
2017-11-20T00:36:42.822Z,1013.32
2017-11-20T00:37:42.784Z,1013.34
2017-11-20T00:39:36.935Z,1013.37
2017-11-20T00:40:36.378Z,1013.35
2017-11-20T00:42:30.467Z,1013.39
2017-11-20T00:43:29.892Z,1013.37
2017-11-20T00:45:22.890Z,1013.40
2017-11-20T00:46:23.480Z,1013.39
2017-11-20T00:48:16.102Z,1013.36
2017-11-20T00:49:15.040Z,1013.32
2017-11-20T00:51:10.569Z,1013.27
2017-11-20T00:52:09.624Z,1013.29
2017-11-20T00:54:03.212Z,1013.28
2017-11-20T00:55:04.113Z,1013.26
2017-11-20T00:56:57.679Z,1013.32
2017-11-20T00:57:58.622Z,1013.36
2017-11-20T00:59:50.266Z,1013.31
2017-11-20T01:00:51.284Z,1013.32
2017-11-20T01:02:44.829Z,1013.36
2017-11-20T01:03:44.823Z,1013.36
2017-11-20T01:05:37.431Z,1013.35
2017-11-20T01:06:38.352Z,1013.38
2017-11-20T01:08:32.562Z,1013.41
2017-11-20T01:09:31.904Z,1013.43
2017-11-20T01:11:25.460Z,1013.40
2017-11-20T01:12:25.512Z,1013.41
2017-11-20T01:14:17.893Z,1013.39
2017-11-20T01:15:19.027Z,1013.41
2017-11-20T01:17:12.569Z,1013.43
2017-11-20T01:18:12.573Z,1013.44
2017-11-20T01:20:05.252Z,1013.42
2017-11-20T01:21:06.124Z,1013.42
2017-11-20T01:22:59.585Z,1013.41
2017-11-20T01:23:59.709Z,1013.41
2017-11-20T01:25:52.351Z,1013.35
2017-11-20T01:26:52.449Z,1013.32
2017-11-20T01:28:44.883Z,1013.31
2017-11-20T01:29:46.789Z,1013.32
2017-11-20T01:31:39.404Z,1013.30
2017-11-20T01:32:40.396Z,1013.30
2017-11-20T01:34:33.897Z,1013.28
2017-11-20T01:35:33.935Z,1013.34
2017-11-20T01:37:24.685Z,1013.36
2017-11-20T01:38:26.576Z,1013.37
2017-11-20T01:40:20.163Z,1013.37
2017-11-20T01:41:20.598Z,1013.39
2017-11-20T01:43:15.171Z,1013.36
2017-11-20T01:44:14.561Z,1013.28
2017-11-20T01:46:08.026Z,1013.32
2017-11-20T01:47:08.122Z,1013.31
2017-11-20T01:49:00.822Z,1013.28
2017-11-20T01:50:01.762Z,1013.28
2017-11-20T01:51:55.153Z,1013.27
2017-11-20T01:52:55.296Z,1013.31
2017-11-20T01:54:47.932Z,1013.28
2017-11-20T01:55:48.808Z,1013.30
2017-11-20T01:57:42.248Z,1013.31
2017-11-20T01:58:42.406Z,1013.32
2017-11-20T02:00:34.603Z,1013.28
2017-11-20T02:01:35.062Z,1013.24
2017-11-20T02:03:28.609Z,1013.29
2017-11-20T02:04:29.404Z,1013.25
2017-11-20T02:06:22.783Z,1013.30
2017-11-20T02:07:23.052Z,1013.25
2017-11-20T02:09:15.551Z,1013.23
2017-11-20T02:10:15.813Z,1013.29
2017-11-20T02:12:10.177Z,1013.34
2017-11-20T02:13:10.187Z,1013.32
2017-11-20T02:15:02.812Z,1013.34
2017-11-20T02:16:03.702Z,1013.32
2017-11-20T02:17:57.265Z,1013.30
2017-11-20T02:18:57.347Z,1013.34
2017-11-20T02:20:49.912Z,1013.28
2017-11-20T02:21:49.958Z,1013.28
2017-11-20T02:23:42.245Z,1013.27
2017-11-20T02:24:44.409Z,1013.25
2017-11-20T02:26:36.969Z,1013.19
2017-11-20T02:27:37.972Z,1013.19
2017-11-20T02:29:31.336Z,1013.17
2017-11-20T02:30:31.485Z,1013.18
2017-11-20T02:32:24.166Z,1013.16
2017-11-20T02:33:25.039Z,1013.14
2017-11-20T02:35:17.556Z,1013.15
2017-11-20T02:36:18.650Z,1013.10
2017-11-20T02:38:11.343Z,1013.10
2017-11-20T02:39:12.206Z,1013.13
2017-11-20T02:41:02.873Z,1013.08
2017-11-20T02:42:05.790Z,1013.09
2017-11-20T02:43:58.417Z,1013.05
2017-11-20T02:44:59.295Z,1013.04
2017-11-20T02:46:52.845Z,1013.06
2017-11-20T02:47:53.762Z,1013.11
2017-11-20T02:49:45.276Z,1013.03
2017-11-20T02:50:46.382Z,1013.01
2017-11-20T02:52:39.869Z,1013.01
2017-11-20T02:53:39.967Z,1013.05
2017-11-20T02:55:34.119Z,1012.99
2017-11-20T02:56:33.503Z,1012.94
2017-11-20T02:58:24.163Z,1013.02
2017-11-20T02:59:27.129Z,1012.92
2017-11-20T03:01:19.773Z,1012.85
2017-11-20T03:02:20.644Z,1012.86
2017-11-20T03:04:14.168Z,1012.87
2017-11-20T03:05:14.156Z,1012.87
2017-11-20T03:07:08.332Z,1012.84
2017-11-20T03:08:07.756Z,1012.85
2017-11-20T03:10:01.304Z,1012.86
2017-11-20T03:11:01.274Z,1012.89
2017-11-20T03:12:53.919Z,1012.93
2017-11-20T03:13:54.832Z,1012.85
2017-11-20T03:15:45.560Z,1012.87
2017-11-20T03:16:48.428Z,1012.90
2017-11-20T03:18:40.970Z,1012.85
2017-11-20T03:19:41.015Z,1012.86
2017-11-20T03:21:35.546Z,1012.87
2017-11-20T03:22:35.549Z,1012.89
2017-11-20T03:24:27.919Z,1012.84
2017-11-20T03:25:29.059Z,1012.82
2017-11-20T03:27:22.647Z,1012.84
2017-11-20T03:28:20.726Z,1012.83
2017-11-20T03:30:15.323Z,1012.88
2017-11-20T03:31:16.253Z,1012.92
2017-11-20T03:33:08.519Z,1012.90
2017-11-20T03:34:09.786Z,1012.90
2017-11-20T03:36:02.144Z,1012.91
2017-11-20T03:37:03.291Z,1012.89
2017-11-20T03:38:56.699Z,1012.90
2017-11-20T03:39:56.839Z,1012.90
2017-11-20T03:41:49.550Z,1012.89
2017-11-20T03:42:50.434Z,1012.92
2017-11-20T03:44:43.244Z,1012.89
2017-11-20T03:45:42.559Z,1012.86
2017-11-20T03:47:36.497Z,1012.90
2017-11-20T03:48:37.514Z,1012.85
2017-11-20T03:50:31.073Z,1012.89
2017-11-20T03:51:31.075Z,1012.92
2017-11-20T03:53:23.752Z,1012.91
2017-11-20T03:54:24.623Z,1012.89
2017-11-20T03:56:18.034Z,1012.87
2017-11-20T03:57:18.173Z,1012.91
2017-11-20T03:59:10.863Z,1012.91
2017-11-20T04:00:11.731Z,1012.97
2017-11-20T04:02:05.308Z,1012.99
2017-11-20T04:03:02.629Z,1012.97
2017-11-20T04:04:57.772Z,1012.96
2017-11-20T04:05:58.841Z,1012.96
2017-11-20T04:07:52.320Z,1012.91
2017-11-20T04:08:52.407Z,1012.93
2017-11-20T04:10:45.093Z,1012.96
2017-11-20T04:11:45.955Z,1012.92
2017-11-20T04:13:39.525Z,1012.94
2017-11-20T04:14:39.601Z,1012.89
2017-11-20T04:16:32.151Z,1012.95
2017-11-20T04:17:33.080Z,1012.95
2017-11-20T04:19:26.674Z,1012.89
2017-11-20T04:20:23.959Z,1012.85
2017-11-20T04:22:19.290Z,1012.98
2017-11-20T04:23:20.214Z,1012.98
2017-11-20T04:25:12.906Z,1012.94
2017-11-20T04:26:13.744Z,1012.95
2017-11-20T04:28:07.228Z,1012.97
2017-11-20T04:29:06.565Z,1012.96
2017-11-20T04:30:59.798Z,1012.95
2017-11-20T04:32:00.557Z,1012.94
2017-11-20T04:33:53.322Z,1012.91
2017-11-20T04:34:54.417Z,1012.97
2017-11-20T04:36:46.837Z,1012.85
2017-11-20T04:37:47.101Z,1012.83
2017-11-20T04:39:41.468Z,1012.84
2017-11-20T04:40:41.565Z,1012.77
2017-11-20T04:42:35.674Z,1012.80
2017-11-20T04:43:35.081Z,1012.82
2017-11-20T04:45:28.665Z,1012.76
2017-11-20T04:46:28.644Z,1012.75
2017-11-20T04:48:21.140Z,1012.66
2017-11-20T04:49:22.192Z,1012.71
2017-11-20T04:51:15.787Z,1012.72
2017-11-20T04:52:16.673Z,1012.73
2017-11-20T04:54:08.410Z,1012.66
2017-11-20T04:55:09.299Z,1012.64
2017-11-20T04:57:01.690Z,1012.64
2017-11-20T04:58:02.894Z,1012.65
2017-11-20T04:59:55.498Z,1012.62
2017-11-20T05:00:56.414Z,1012.61
2017-11-20T05:02:47.722Z,1012.60
2017-11-20T05:03:49.973Z,1012.63
2017-11-20T05:05:42.629Z,1012.56
2017-11-20T05:06:43.549Z,1012.62
2017-11-20T05:08:36.965Z,1012.64
2017-11-20T05:09:37.085Z,1012.69
2017-11-20T05:11:27.848Z,1012.69
2017-11-20T05:12:28.638Z,1012.69
2017-11-20T05:14:23.211Z,1012.76
2017-11-20T05:15:23.376Z,1012.68
2017-11-20T05:17:17.795Z,1012.69
2017-11-20T05:18:17.753Z,1012.67
2017-11-20T05:20:10.297Z,1012.70
2017-11-20T05:21:11.305Z,1012.69
2017-11-20T05:23:04.867Z,1012.66
2017-11-20T05:24:04.860Z,1012.67
2017-11-20T05:25:57.509Z,1012.71
2017-11-20T05:26:58.424Z,1012.71
2017-11-20T05:28:52.007Z,1012.68
2017-11-20T05:29:52.913Z,1012.73
2017-11-20T05:31:46.127Z,1012.70
2017-11-20T05:32:45.581Z,1012.66
2017-11-20T05:34:39.077Z,1012.75
2017-11-20T05:35:39.125Z,1012.78
2017-11-20T05:37:33.232Z,1012.73
2017-11-20T05:38:32.640Z,1012.75
2017-11-20T05:40:26.126Z,1012.88
2017-11-20T05:41:26.244Z,1012.82
2017-11-20T05:43:18.973Z,1012.79
2017-11-20T05:44:19.754Z,1012.82
2017-11-20T05:46:13.351Z,1012.84
2017-11-20T05:47:11.305Z,1012.84
2017-11-20T05:49:05.693Z,1012.84
2017-11-20T05:50:05.891Z,1012.81
2017-11-20T05:52:00.540Z,1012.80
2017-11-20T05:53:00.425Z,1012.82
2017-11-20T05:54:53.055Z,1012.78
2017-11-20T05:55:54.022Z,1012.74
2017-11-20T05:57:46.651Z,1012.78
2017-11-20T05:58:47.546Z,1012.77
2017-11-20T06:00:40.857Z,1012.71
2017-11-20T06:01:41.125Z,1012.74
2017-11-20T06:03:35.229Z,1012.71
2017-11-20T06:04:34.647Z,1012.71
2017-11-20T06:06:28.060Z,1012.72
2017-11-20T06:07:28.247Z,1012.73
2017-11-20T06:09:22.343Z,1012.75
2017-11-20T06:10:21.796Z,1012.78
2017-11-20T06:12:14.283Z,1012.84
2017-11-20T06:13:15.352Z,1012.79
2017-11-20T06:15:07.999Z,1012.72
2017-11-20T06:16:08.914Z,1012.78
2017-11-20T06:18:02.441Z,1012.78
2017-11-20T06:19:02.366Z,1012.79
2017-11-20T06:20:54.913Z,1012.79
2017-11-20T06:21:55.985Z,1012.76
2017-11-20T06:23:49.535Z,1012.83
2017-11-20T06:24:49.601Z,1012.80
2017-11-20T06:26:42.218Z,1012.82
2017-11-20T06:27:43.103Z,1012.83
2017-11-20T06:29:35.655Z,1012.80
2017-11-20T06:30:36.669Z,1012.84
2017-11-20T06:32:29.272Z,1012.83
2017-11-20T06:33:30.208Z,1012.83
2017-11-20T06:35:22.851Z,1012.83
2017-11-20T06:36:23.797Z,1012.80
2017-11-20T06:38:17.231Z,1012.81
2017-11-20T06:39:17.334Z,1012.80
2017-11-20T06:41:09.943Z,1012.79
2017-11-20T06:42:10.886Z,1012.82
2017-11-20T06:44:03.525Z,1012.82
2017-11-20T06:45:04.469Z,1012.79
2017-11-20T06:46:58.043Z,1012.79
2017-11-20T06:47:58.061Z,1012.73
2017-11-20T07:08:13.161Z,1012.83
2017-11-20T07:09:14.865Z,1012.85
2017-11-20T07:11:08.307Z,1012.95
2017-11-20T07:12:08.430Z,1012.89
2017-11-20T07:14:01.140Z,1012.90
2017-11-20T07:15:01.995Z,1012.96
2017-11-20T07:16:55.570Z,1012.95
2017-11-20T07:17:55.541Z,1012.98
2017-11-20T07:19:47.960Z,1012.95
2017-11-20T07:20:49.115Z,1012.95
2017-11-20T07:22:42.689Z,1013.01
2017-11-20T07:23:42.683Z,1013.02
2017-11-20T07:25:33.384Z,1013.00
2017-11-20T07:26:36.218Z,1012.97
2017-11-20T07:49:57.303Z,1012.89
2017-11-20T07:50:58.302Z,1012.93
2017-11-20T07:52:51.888Z,1012.93
2017-11-20T07:53:50.002Z,1012.91
2017-11-20T07:55:44.503Z,1012.92
2017-11-20T07:56:45.451Z,1012.98
2017-11-20T07:58:37.969Z,1012.96
2017-11-20T07:59:36.987Z,1012.97
2017-11-20T08:01:32.533Z,1012.94
2017-11-20T08:02:32.531Z,1012.97
2017-11-20T08:04:25.144Z,1013.05
2017-11-20T08:05:26.095Z,1012.95
2017-11-20T08:07:19.653Z,1012.95
2017-11-20T08:08:19.717Z,1012.96
2017-11-20T08:10:12.335Z,1013.00
2017-11-20T08:11:13.241Z,1013.00
2017-11-20T08:13:06.765Z,1012.91
2017-11-20T08:14:06.809Z,1012.95
2017-11-20T08:15:59.476Z,1012.95
2017-11-20T08:17:00.334Z,1012.92
2017-11-20T08:18:53.803Z,1012.96
2017-11-20T08:19:53.913Z,1012.93
2017-11-20T08:21:47.401Z,1012.84
2017-11-20T08:22:47.449Z,1012.92
2017-11-20T08:24:40.084Z,1012.94
2017-11-20T08:25:40.997Z,1012.96
2017-11-20T08:27:34.624Z,1012.90
2017-11-20T08:28:34.586Z,1012.92
2017-11-20T08:30:26.989Z,1012.86
2017-11-20T08:31:28.102Z,1012.83
2017-11-20T08:33:21.650Z,1012.70
2017-11-20T08:34:21.819Z,1012.74
2017-11-20T08:36:14.368Z,1012.71
2017-11-20T08:37:15.210Z,1012.79
2017-11-20T08:39:08.665Z,1012.74
2017-11-20T08:40:08.789Z,1012.72
2017-11-20T08:42:00.132Z,1012.62
2017-11-20T08:43:02.322Z,1012.68
2017-11-20T08:44:55.918Z,1012.68
2017-11-20T08:45:55.922Z,1012.63
2017-11-20T08:47:48.543Z,1012.65
2017-11-20T08:48:49.453Z,1012.63
2017-11-20T08:50:42.953Z,1012.62
2017-11-20T08:51:43.018Z,1012.65
2017-11-20T08:53:35.509Z,1012.62
2017-11-20T08:54:36.614Z,1012.60
2017-11-20T08:56:30.114Z,1012.59
2017-11-20T08:57:30.109Z,1012.58
2017-11-20T08:59:22.653Z,1012.53
2017-11-20T09:00:23.721Z,1012.57
2017-11-20T09:02:17.202Z,1012.62
2017-11-20T09:03:17.275Z,1012.55
2017-11-20T09:05:09.675Z,1012.59
2017-11-20T09:06:10.877Z,1012.58
2017-11-20T09:08:04.405Z,1012.54
2017-11-20T09:09:04.348Z,1012.51
2017-11-20T09:10:56.977Z,1012.49
2017-11-20T09:11:57.917Z,1012.48
2017-11-20T09:13:51.457Z,1012.47
2017-11-20T09:14:51.505Z,1012.49
2017-11-20T09:16:44.099Z,1012.52
2017-11-20T09:17:45.036Z,1012.55
2017-11-20T09:19:38.524Z,1012.49
2017-11-20T09:20:38.614Z,1012.53
2017-11-20T09:22:32.710Z,1012.50
2017-11-20T09:23:32.130Z,1012.45
2017-11-20T09:25:25.677Z,1012.51
2017-11-20T09:26:25.204Z,1012.45
2017-11-20T09:28:18.192Z,1012.49
2017-11-20T09:29:19.285Z,1012.40
2017-11-20T09:31:12.800Z,1012.45
2017-11-20T09:32:12.820Z,1012.42
2017-11-20T09:34:05.200Z,1012.38
2017-11-20T09:35:06.371Z,1012.39
2017-11-20T09:36:57.665Z,1012.36
2017-11-20T09:37:59.906Z,1012.38
2017-11-20T09:39:52.762Z,1012.37
2017-11-20T09:40:53.520Z,1012.36
2017-11-20T09:42:46.168Z,1012.35
2017-11-20T09:43:47.025Z,1012.35
2017-11-20T09:45:40.615Z,1012.37
2017-11-20T09:46:40.625Z,1012.37
2017-11-20T09:48:33.744Z,1012.32
2017-11-20T09:49:34.173Z,1012.30
2017-11-20T09:51:27.572Z,1012.25
2017-11-20T09:52:27.119Z,1012.19
2017-11-20T09:54:20.150Z,1012.18
2017-11-20T09:55:21.259Z,1012.15
2017-11-20T09:57:14.812Z,1012.09
2017-11-20T09:58:14.820Z,1012.12
2017-11-20T10:00:07.343Z,1012.07
2017-11-20T10:01:08.368Z,1012.04
2017-11-20T10:03:00.177Z,1012.03
2017-11-20T10:04:01.923Z,1012.01
2017-11-20T10:05:54.836Z,1011.94
2017-11-20T10:06:55.634Z,1011.95
2017-11-20T10:08:46.842Z,1011.89
2017-11-20T10:09:49.075Z,1011.90
2017-11-20T10:11:41.701Z,1011.87
2017-11-20T10:12:42.796Z,1011.82
2017-11-20T10:14:36.142Z,1011.91
2017-11-20T10:15:36.181Z,1011.90
2017-11-20T10:17:28.823Z,1011.93
2017-11-20T10:18:29.620Z,1011.94
2017-11-20T10:20:23.257Z,1011.85
2017-11-20T10:21:23.273Z,1011.84
2017-11-20T10:23:16.405Z,1011.82
2017-11-20T10:24:16.808Z,1011.76
2017-11-20T10:26:09.381Z,1011.76
2017-11-20T10:27:10.377Z,1011.76
2017-11-20T10:29:02.810Z,1011.76
2017-11-20T10:30:03.960Z,1011.72
2017-11-20T10:31:57.523Z,1011.70
2017-11-20T10:32:57.465Z,1011.69
2017-11-20T10:34:50.173Z,1011.64
2017-11-20T10:35:51.055Z,1011.67
2017-11-20T10:37:44.671Z,1011.71
2017-11-20T10:38:44.167Z,1011.64
2017-11-20T10:40:37.145Z,1011.67
2017-11-20T10:41:38.157Z,1011.66
2017-11-20T10:43:28.800Z,1011.61
2017-11-20T10:44:31.753Z,1011.56
2017-11-20T10:46:25.204Z,1011.51
2017-11-20T10:47:25.271Z,1011.48
2017-11-20T10:49:17.929Z,1011.46
2017-11-20T10:50:18.862Z,1011.44
2017-11-20T10:52:11.341Z,1011.43
2017-11-20T10:53:12.371Z,1011.35
2017-11-20T10:55:05.936Z,1011.32
2017-11-20T10:56:05.967Z,1011.32
2017-11-20T10:57:58.569Z,1011.35
2017-11-20T10:58:59.491Z,1011.28
2017-11-20T11:00:50.173Z,1011.36
2017-11-20T11:01:53.053Z,1011.37
2017-11-20T11:03:45.685Z,1011.28
2017-11-20T11:04:46.632Z,1011.29
2017-11-20T11:06:40.169Z,1011.24
2017-11-20T11:07:40.165Z,1011.21
2017-11-20T11:09:32.577Z,1011.16
2017-11-20T11:10:33.704Z,1011.20
2017-11-20T11:13:56.869Z,1011.14
2017-11-20T11:14:59.233Z,1011.07
2017-11-20T11:16:51.902Z,1011.05
2017-11-20T11:17:52.840Z,1011.04
2017-11-20T11:19:46.402Z,1010.94
2017-11-20T11:20:43.704Z,1011.02
2017-11-20T11:22:38.919Z,1010.92
2017-11-20T11:23:39.898Z,1010.91
2017-11-20T11:25:33.471Z,1010.92
2017-11-20T11:26:33.432Z,1010.89
2017-11-20T11:28:26.031Z,1010.87
2017-11-20T11:29:27.036Z,1010.87
2017-11-20T11:31:23.097Z,1010.84
2017-11-20T11:32:20.529Z,1010.83
2017-11-20T11:34:13.209Z,1010.75
2017-11-20T11:35:14.126Z,1010.80
2017-11-20T11:37:07.086Z,1010.76
2017-11-20T11:38:04.989Z,1010.74
2017-11-20T11:40:01.205Z,1010.83
2017-11-20T11:41:01.100Z,1010.75
2017-11-20T11:42:54.917Z,1010.72
2017-11-20T11:43:53.064Z,1010.60
2017-11-20T11:45:47.388Z,1010.61
2017-11-20T11:46:48.386Z,1010.58
2017-11-20T11:48:41.037Z,1010.53
2017-11-20T11:49:41.867Z,1010.48
2017-11-20T11:51:34.385Z,1010.46
2017-11-20T11:52:35.437Z,1010.47
2017-11-20T11:54:31.650Z,1010.46
2017-11-20T11:55:27.133Z,1010.44
2017-11-20T11:57:21.663Z,1010.41
2017-11-20T11:58:22.604Z,1010.36
2017-11-20T12:00:14.264Z,1010.32
2017-11-20T12:01:16.135Z,1010.33
2017-11-20T12:03:10.247Z,1010.28
2017-11-20T12:04:09.665Z,1010.26
2017-11-20T12:06:03.260Z,1010.30
2017-11-20T12:07:03.243Z,1010.33
2017-11-20T12:08:55.707Z,1010.28
2017-11-20T12:09:56.774Z,1010.28
2017-11-20T12:11:50.354Z,1010.20
2017-11-20T12:12:50.389Z,1010.21
2017-11-20T12:14:42.867Z,1010.20
2017-11-20T12:16:59.582Z,1010.09
2017-11-20T12:17:54.643Z,1010.08
2017-11-20T12:19:49.907Z,1010.08
2017-11-20T12:20:50.863Z,1010.07
2017-11-20T12:22:43.645Z,1010.04
2017-11-20T12:23:43.817Z,1010.04
2017-11-20T12:25:36.904Z,1009.95
2017-11-20T12:26:38.062Z,1009.86
2017-11-20T12:28:29.654Z,1009.84
2017-11-20T12:29:31.587Z,1009.84
2017-11-20T12:31:24.233Z,1009.88
2017-11-20T12:32:25.099Z,1009.79
2017-11-20T12:34:36.879Z,1009.73
2017-11-20T12:35:16.044Z,1009.71
2017-11-20T12:37:12.829Z,1009.68
2017-11-20T12:38:12.269Z,1009.71
2017-11-20T12:40:05.807Z,1009.63
2017-11-20T12:41:05.855Z,1009.57
2017-11-20T12:42:59.189Z,1009.52
2017-11-20T12:43:59.474Z,1009.52
2017-11-20T12:45:51.733Z,1009.39
2017-11-20T12:46:52.888Z,1009.39
2017-11-20T12:48:46.462Z,1009.32
2017-11-20T12:49:46.476Z,1009.30
2017-11-20T12:51:39.056Z,1009.35
2017-11-20T12:52:39.996Z,1009.25
2017-11-20T12:54:33.572Z,1009.31
2017-11-20T12:55:33.581Z,1009.22
2017-11-20T12:57:26.328Z,1009.24
2017-11-20T12:58:27.124Z,1009.15
2017-11-20T13:00:19.110Z,1009.09
2017-11-20T13:01:20.653Z,1009.10
2017-11-20T13:03:13.094Z,1009.08
2017-11-20T13:04:14.326Z,1009.09
2017-11-20T13:06:07.780Z,1008.97
2017-11-20T13:07:07.788Z,1009.01
2017-11-20T13:09:00.733Z,1008.94
2017-11-20T13:10:01.334Z,1008.93
2017-11-20T13:11:55.008Z,1008.88
2017-11-20T13:12:53.791Z,1008.82
2017-11-20T13:14:47.397Z,1008.74
2017-11-20T13:15:48.501Z,1008.74
2017-11-20T13:17:41.834Z,1008.67
2017-11-20T13:18:42.150Z,1008.67
2017-11-20T13:20:45.685Z,1008.60
2017-11-20T13:22:48.180Z,1008.57
2017-11-20T13:23:49.031Z,1008.53
2017-11-20T13:25:42.537Z,1008.49
2017-11-20T13:27:55.087Z,1008.41
2017-11-20T13:28:56.008Z,1008.34
2017-11-20T13:30:49.567Z,1008.26
2017-11-20T13:31:49.540Z,1008.18
2017-11-20T13:33:42.220Z,1008.09
2017-11-20T13:34:43.089Z,1008.11
2017-11-20T13:36:36.575Z,1008.02
2017-11-20T13:37:36.640Z,1008.03
2017-11-20T13:39:30.824Z,1007.99
2017-11-20T13:40:30.233Z,1007.96
2017-11-20T13:42:23.749Z,1007.88
2017-11-20T13:43:22.013Z,1007.85
2017-11-20T13:45:16.439Z,1007.77
2017-11-20T13:46:16.441Z,1007.75
2017-11-20T13:48:10.817Z,1007.71
2017-11-20T13:49:10.857Z,1007.64
2017-11-20T13:51:03.550Z,1007.54
2017-11-20T13:52:05.317Z,1007.58
2017-11-20T13:53:55.911Z,1007.53
2017-11-20T13:54:57.978Z,1007.51
2017-11-20T13:56:50.651Z,1007.42
2017-11-20T13:57:51.352Z,1007.43
2017-11-20T13:59:44.182Z,1007.28
2017-11-20T14:01:55.616Z,1007.28
2017-11-20T14:02:58.553Z,1007.19
2017-11-20T14:04:51.137Z,1007.11
2017-11-20T14:05:52.051Z,1007.15
2017-11-20T14:07:45.619Z,1007.08
2017-11-20T14:08:44.801Z,1007.10
2017-11-20T14:10:38.299Z,1006.99
2017-11-20T14:14:44.675Z,1006.99
2017-11-20T14:15:24.560Z,1006.98
2017-11-20T14:17:40.822Z,1007.01
2017-11-20T14:18:18.098Z,1006.94
2017-11-20T14:20:11.638Z,1006.94
2017-11-20T14:22:23.960Z,1006.87
2017-11-20T14:23:25.047Z,1006.91
2017-11-20T14:25:17.679Z,1006.89
2017-11-20T14:26:16.978Z,1006.89
2017-11-20T14:28:12.254Z,1006.85
2017-11-20T14:29:12.199Z,1006.80
2017-11-20T14:31:02.928Z,1006.79
2017-11-20T14:32:05.780Z,1006.76
2017-11-20T14:33:58.384Z,1006.87
2017-11-20T14:34:59.455Z,1006.89
2017-11-20T14:36:50.967Z,1006.88
2017-11-20T14:37:50.236Z,1006.86
2017-11-20T14:39:47.026Z,1006.68
2017-11-20T14:41:59.859Z,1006.54
2017-11-20T14:42:59.837Z,1006.55
2017-11-20T14:44:52.425Z,1006.54
2017-11-20T14:47:05.813Z,1006.57
2017-11-20T14:48:06.791Z,1006.57
2017-11-20T14:49:59.465Z,1006.57
2017-11-20T14:51:00.360Z,1006.57
2017-11-20T14:52:51.665Z,1006.42
2017-11-20T14:53:53.820Z,1006.47
2017-11-20T14:55:47.375Z,1006.45
2017-11-20T14:56:47.465Z,1006.49
2017-11-20T14:58:39.082Z,1006.45
2017-11-20T14:59:41.053Z,1006.38
2017-11-20T15:01:33.711Z,1006.30
2017-11-20T15:02:34.618Z,1006.28
2017-11-20T15:04:28.206Z,1006.33
2017-11-20T15:05:28.170Z,1006.38
2017-11-20T15:07:20.815Z,1006.37
2017-11-20T15:08:21.723Z,1006.35
2017-11-20T15:10:12.424Z,1006.28
2017-11-20T15:11:15.327Z,1006.38
2017-11-20T15:13:06.977Z,1006.30
2017-11-20T15:14:08.868Z,1006.31
2017-11-20T15:16:01.537Z,1006.27
2017-11-20T15:17:01.536Z,1006.22
2017-11-20T15:18:55.089Z,1006.11
2017-11-20T15:19:56.043Z,1006.08
2017-11-20T15:21:49.589Z,1006.12
2017-11-20T15:22:49.548Z,1006.08
2017-11-20T15:24:42.255Z,1006.07
2017-11-20T15:25:43.153Z,1006.04
2017-11-20T15:27:36.701Z,1005.98
2017-11-20T15:28:36.701Z,1005.95
2017-11-20T15:30:29.341Z,1005.96
2017-11-20T15:31:29.276Z,1005.90
2017-11-20T15:33:23.814Z,1005.89
2017-11-20T15:34:23.818Z,1005.85
2017-11-20T15:36:17.955Z,1005.93
2017-11-20T15:37:17.356Z,1005.87
2017-11-20T15:39:10.012Z,1005.86
2017-11-20T15:40:09.493Z,1005.82
2017-11-20T15:42:04.517Z,1005.75
2017-11-20T15:43:03.870Z,1005.80
2017-11-20T15:44:57.216Z,1005.72
2017-11-20T15:45:58.170Z,1005.72
2017-11-20T15:47:54.972Z,1005.69
2017-11-20T15:48:51.047Z,1005.69
2017-11-20T15:50:44.099Z,1005.58
2017-11-20T15:51:45.187Z,1005.62
2017-11-20T15:53:38.714Z,1005.62
2017-11-20T15:54:38.775Z,1005.58
2017-11-20T15:56:31.326Z,1005.52
2017-11-20T15:57:29.608Z,1005.46
2017-11-20T15:59:26.790Z,1005.41
2017-11-20T16:00:25.877Z,1005.42
2017-11-20T16:02:19.817Z,1005.47
2017-11-20T16:03:19.403Z,1005.47
2017-11-20T16:05:13.573Z,1005.38
2017-11-20T16:06:12.309Z,1005.39
2017-11-20T16:08:05.609Z,1005.42
2017-11-20T16:09:06.496Z,1005.41
2017-11-20T16:11:19.025Z,1005.42
2017-11-20T16:12:51.333Z,1005.41
2017-11-20T16:13:52.538Z,1005.39
2017-11-20T16:15:46.162Z,1005.42
2017-11-20T16:16:46.973Z,1005.41
2017-11-20T16:18:40.488Z,1005.36
2017-11-20T16:19:40.492Z,1005.36
2017-11-20T16:21:35.133Z,1005.32
2017-11-20T16:22:34.087Z,1005.35
2017-11-20T16:24:31.277Z,1005.30
2017-11-20T16:25:27.604Z,1005.23
2017-11-20T16:27:20.942Z,1005.25
2017-11-20T16:28:21.204Z,1005.31
2017-11-20T16:30:13.656Z,1005.26
2017-11-20T16:31:14.748Z,1005.23
2017-11-20T16:33:07.419Z,1005.20
2017-11-20T16:34:08.314Z,1005.16
2017-11-20T16:36:00.937Z,1005.17
2017-11-20T16:37:01.208Z,1005.11
2017-11-20T16:38:55.459Z,1005.11
2017-11-20T16:39:55.435Z,1005.06
2017-11-20T16:41:47.795Z,1004.99
2017-11-20T16:42:48.947Z,1004.99
2017-11-20T16:44:42.537Z,1004.92
2017-11-20T16:45:42.494Z,1004.91
2017-11-20T16:47:33.284Z,1004.88
2017-11-20T16:48:37.379Z,1004.89
2017-11-20T16:50:29.726Z,1004.87
2017-11-20T16:52:42.881Z,1004.80
2017-11-20T16:53:43.227Z,1004.79
2017-11-20T16:55:35.400Z,1004.79
2017-11-20T16:57:49.953Z,1004.74
2017-11-20T16:58:49.977Z,1004.74
2017-11-20T17:00:42.802Z,1004.75
2017-11-20T17:01:43.530Z,1004.71
2017-11-20T17:03:37.109Z,1004.67
2017-11-20T17:04:37.107Z,1004.70
2017-11-20T17:06:29.688Z,1004.68
2017-11-20T17:07:29.851Z,1004.61
2017-11-20T17:09:24.153Z,1004.62
2017-11-20T17:10:24.202Z,1004.62
2017-11-20T17:12:16.901Z,1004.56
2017-11-20T17:13:17.763Z,1004.53
2017-11-20T17:15:11.362Z,1004.51
2017-11-20T17:16:09.778Z,1004.46
2017-11-20T17:18:03.985Z,1004.45
2017-11-20T17:19:04.868Z,1004.41
2017-11-20T17:20:58.368Z,1004.45
2017-11-20T17:21:58.469Z,1004.47
2017-11-20T17:23:51.190Z,1004.45
2017-11-20T17:24:49.315Z,1004.47
2017-11-20T17:26:45.474Z,1004.45
2017-11-20T17:27:45.577Z,1004.45
2017-11-20T17:29:39.108Z,1004.42
2017-11-20T17:30:39.164Z,1004.38
2017-11-20T17:32:31.584Z,1004.42
2017-11-20T17:34:43.155Z,1004.44
2017-11-20T17:35:46.093Z,1004.41
2017-11-20T17:40:44.137Z,1004.32
2017-11-20T17:41:43.501Z,1004.26
2017-11-20T17:43:36.993Z,1004.23
2017-11-20T17:44:37.104Z,1004.24
2017-11-20T17:46:29.535Z,1004.24
2017-11-20T17:47:29.261Z,1004.27
2017-11-20T17:49:24.202Z,1004.22
2017-11-20T17:50:24.176Z,1004.18
2017-11-20T17:52:18.394Z,1004.20
2017-11-20T17:53:18.648Z,1004.19
2017-11-20T17:55:11.340Z,1004.15
2017-11-20T17:56:11.434Z,1004.12
2017-11-20T17:58:04.751Z,1004.06
2017-11-20T17:59:03.235Z,1004.11
2017-11-20T18:00:58.406Z,1004.07
2017-11-20T18:01:58.428Z,1004.15
2017-11-20T18:03:51.058Z,1004.13
2017-11-20T18:04:49.361Z,1004.18
2017-11-20T18:06:45.359Z,1004.23
2017-11-20T18:07:46.465Z,1004.21
2017-11-20T18:09:38.184Z,1004.15
2017-11-20T18:10:37.349Z,1004.19
2017-11-20T18:12:31.821Z,1004.17
2017-11-20T18:13:32.643Z,1004.16
2017-11-20T18:15:25.300Z,1004.11
2017-11-20T18:16:26.192Z,1004.09
2017-11-20T18:18:20.339Z,1004.10
2017-11-20T18:19:20.105Z,1004.12
2017-11-20T18:21:12.307Z,1004.08
2017-11-20T18:22:11.597Z,1004.10
2017-11-20T18:24:06.782Z,1004.07